createdAt,value
2022-10-07T00:03:50.651Z,99098.66
2022-10-07T00:08:55.549Z,99102.19
2022-10-07T00:14:16.972Z,99117.00
2022-10-07T00:19:24.318Z,99121.38
2022-10-07T00:24:30.659Z,99117.13
2022-10-07T00:29:44.924Z,99121.50
2022-10-07T00:34:58.073Z,99125.06
2022-10-07T00:40:07.923Z,99134.66
2022-10-07T00:45:16.970Z,99134.66
2022-10-07T00:50:31.871Z,99134.66
2022-10-07T00:55:35.441Z,99140.78
2022-10-07T01:00:41.015Z,99141.72
2022-10-07T01:05:44.376Z,99145.25
2022-10-07T01:11:00.257Z,99151.38
2022-10-07T01:16:14.161Z,99150.56
2022-10-07T01:21:32.321Z,99154.94
2022-10-07T01:26:49.990Z,99161.88
2022-10-07T01:32:00.227Z,99173.09
2022-10-07T01:37:06.190Z,99183.53
2022-10-07T01:42:11.846Z,99176.59
2022-10-07T01:47:15.263Z,99188.59
2022-10-07T01:52:33.122Z,99179.78
2022-10-07T01:57:44.513Z,99200.50
2022-10-07T02:03:14.725Z,99209.09
2022-10-07T02:08:29.602Z,99215.94
2022-10-07T02:13:39.312Z,99222.91
2022-10-07T02:18:48.475Z,99214.44
2022-10-07T02:23:54.303Z,99229.19
2022-10-07T02:29:02.174Z,99228.41
2022-10-07T02:34:08.987Z,99225.81
2022-10-07T02:39:14.133Z,99224.09
2022-10-07T02:44:26.047Z,99225.00
2022-10-07T02:49:32.228Z,99221.66
2022-10-07T02:54:39.472Z,99239.75
2022-10-07T02:59:45.800Z,99232.72
2022-10-07T03:04:49.849Z,99230.88
2022-10-07T03:09:53.606Z,99236.03
2022-10-07T03:14:58.526Z,99250.69
2022-10-07T03:20:02.663Z,99258.41
2022-10-07T03:25:07.472Z,99259.28
2022-10-07T03:30:14.035Z,99262.81
2022-10-07T03:35:17.791Z,99259.44
2022-10-07T03:40:21.449Z,99254.34
2022-10-07T03:45:26.289Z,99259.59
2022-10-07T03:50:29.631Z,99267.41
2022-10-07T03:55:32.965Z,99259.72
2022-10-07T04:00:39.020Z,99262.38
2022-10-07T04:05:42.392Z,99277.13
2022-10-07T04:10:45.646Z,99293.59
2022-10-07T04:15:50.772Z,99293.50
2022-10-07T04:20:54.149Z,99303.69
2022-10-07T04:25:57.538Z,99301.72
2022-10-07T04:31:05.504Z,99312.88
2022-10-07T04:36:11.684Z,99320.47
2022-10-07T04:41:15.008Z,99313.34
2022-10-07T04:46:19.786Z,99326.38
2022-10-07T04:51:23.434Z,99329.59
2022-10-07T04:56:28.421Z,99334.59
2022-10-07T05:01:33.336Z,99343.22
2022-10-07T05:06:36.658Z,99349.50
2022-10-07T05:11:40.050Z,99358.19
2022-10-07T05:16:44.774Z,99357.31
2022-10-07T05:21:47.989Z,99356.88
2022-10-07T05:26:52.527Z,99360.81
2022-10-07T05:32:00.890Z,99363.44
2022-10-07T05:37:07.181Z,99367.66
2022-10-07T05:42:13.795Z,99370.19
2022-10-07T05:47:19.025Z,99386.44
2022-10-07T05:52:22.347Z,99391.25
2022-10-07T05:57:25.841Z,99400.28
2022-10-07T06:02:30.624Z,99407.31
2022-10-07T06:07:34.073Z,99410.72
2022-10-07T06:12:56.753Z,99428.44
2022-10-07T06:18:01.759Z,99436.78
2022-10-07T06:23:07.055Z,99447.16
2022-10-07T06:28:10.464Z,99450.56
2022-10-07T06:33:15.182Z,99445.25
2022-10-07T06:38:18.882Z,99447.06
2022-10-07T06:43:22.184Z,99466.72
2022-10-07T06:48:28.254Z,99473.28
2022-10-07T06:53:32.482Z,99489.53
2022-10-07T06:58:37.618Z,99490.41
2022-10-07T07:03:42.500Z,99500.59
2022-10-07T07:08:46.366Z,99517.69
2022-10-07T07:13:49.853Z,99507.16
2022-10-07T07:18:55.772Z,99504.47
2022-10-07T07:23:59.780Z,99507.78
2022-10-07T07:29:06.210Z,99500.63
2022-10-07T07:34:14.442Z,99527.41
2022-10-07T07:39:19.879Z,99518.81
2022-10-07T07:44:23.530Z,99516.38
2022-10-07T07:49:32.557Z,99518.50
2022-10-07T07:54:37.670Z,99517.56
2022-10-07T07:59:41.905Z,99523.31
2022-10-07T08:04:46.650Z,99523.59
2022-10-07T08:09:50.540Z,99525.44
2022-10-07T08:14:53.640Z,99529.41
2022-10-07T08:19:59.047Z,99532.59
2022-10-07T08:25:02.661Z,99528.03
2022-10-07T08:30:09.744Z,99526.09
2022-10-07T08:35:15.274Z,99526.72
2022-10-07T08:40:19.985Z,99550.94
2022-10-07T08:45:32.646Z,99555.06
2022-10-07T08:50:52.506Z,99552.88
2022-10-07T08:55:58.612Z,99560.09
2022-10-07T09:01:13.631Z,99559.63
2022-10-07T09:06:28.261Z,99565.28
2022-10-07T09:11:33.526Z,99565.09
2022-10-07T09:16:44.114Z,99564.13
2022-10-07T09:21:51.893Z,99556.81
2022-10-07T09:26:59.026Z,99551.41
2022-10-07T09:32:03.130Z,99549.56
2022-10-07T09:37:29.426Z,99566.19
2022-10-07T09:42:36.651Z,99558.47
2022-10-07T09:47:43.232Z,99557.00
2022-10-07T09:52:57.026Z,99564.22
2022-10-07T09:58:02.474Z,99562.56
2022-10-07T10:03:07.758Z,99568.72
2022-10-07T10:08:26.152Z,99558.97
2022-10-07T10:13:33.576Z,99562.00
2022-10-07T10:18:40.317Z,99572.06
2022-10-07T10:23:47.378Z,99559.03
2022-10-07T10:29:01.068Z,99565.03
2022-10-07T10:34:17.366Z,99553.72
2022-10-07T10:39:42.937Z,99564.25
2022-10-07T10:44:56.180Z,99557.44
2022-10-07T10:50:15.809Z,99564.16
2022-10-07T10:55:51.745Z,99564.31
2022-10-07T11:01:07.581Z,99575.97
2022-10-07T11:06:17.827Z,99586.03
2022-10-07T11:11:25.169Z,99572.84
2022-10-07T11:16:34.005Z,99590.06
2022-10-07T11:21:42.390Z,99596.31
2022-10-07T11:26:53.474Z,99609.94
2022-10-07T11:32:03.366Z,99604.06
2022-10-07T11:37:16.760Z,99594.63
2022-10-07T11:42:25.801Z,99604.28
2022-10-07T11:47:37.126Z,99599.81
2022-10-07T11:52:43.070Z,99601.47
2022-10-07T11:57:55.077Z,99598.06
2022-10-07T12:02:58.806Z,99603.97
2022-10-07T12:08:05.347Z,99611.84
2022-10-07T12:13:39.163Z,99614.72
2022-10-07T12:18:43.665Z,99610.00
2022-10-07T12:23:46.784Z,99612.78
2022-10-07T12:28:54.471Z,99622.66
2022-10-07T12:33:59.784Z,99618.59
2022-10-07T12:39:36.477Z,99602.91
2022-10-07T12:44:52.948Z,99595.34
2022-10-07T12:50:02.194Z,99608.88
2022-10-07T12:55:11.087Z,99615.69
2022-10-07T13:00:18.357Z,99617.13
2022-10-07T13:06:04.238Z,99623.22
2022-10-07T13:11:38.695Z,99624.53
2022-10-07T13:16:51.138Z,99640.13
2022-10-07T13:22:03.562Z,99628.44
2022-10-07T13:27:10.431Z,99621.53
2022-10-07T13:32:18.326Z,99627.44
2022-10-07T13:37:28.367Z,99629.59
2022-10-07T13:42:31.776Z,99628.00
2022-10-07T13:47:37.405Z,99630.78
2022-10-07T13:52:44.738Z,99645.78
2022-10-07T13:57:50.967Z,99619.78
2022-10-07T14:02:56.296Z,99634.53
2022-10-07T14:08:02.281Z,99647.75
2022-10-07T14:13:09.865Z,99637.47
2022-10-07T14:18:16.897Z,99653.38
2022-10-07T14:23:28.372Z,99660.59
2022-10-07T14:28:34.694Z,99674.75
2022-10-07T14:34:03.504Z,99672.13
2022-10-07T14:39:24.137Z,99672.13
2022-10-07T14:44:27.753Z,99681.03
2022-10-07T14:49:33.629Z,99679.38
2022-10-07T14:54:37.034Z,99689.94
2022-10-07T14:59:41.500Z,99692.63
2022-10-07T15:04:46.675Z,99693.59
2022-10-07T15:09:50.857Z,99695.34
2022-10-07T15:14:54.955Z,99696.31
2022-10-07T15:20:00.471Z,99696.38
2022-10-07T15:25:04.547Z,99698.16
2022-10-07T15:30:09.931Z,99699.94
2022-10-07T15:35:15.856Z,99708.63
2022-10-07T15:40:20.149Z,99719.91
2022-10-07T15:45:25.686Z,99716.41
2022-10-07T15:50:33.537Z,99722.47
2022-10-07T15:55:37.686Z,99729.34
2022-10-07T16:00:41.833Z,99729.38
2022-10-07T16:05:47.323Z,99720.72
2022-10-07T16:10:51.520Z,99731.97
2022-10-07T16:15:59.407Z,99735.47
2022-10-07T16:21:07.004Z,99733.81
2022-10-07T16:26:12.909Z,99727.75
2022-10-07T16:31:17.130Z,99735.56
2022-10-07T16:36:24.311Z,99732.97
2022-10-07T16:41:28.469Z,99739.94
2022-10-07T16:46:33.834Z,99740.78
2022-10-07T16:51:39.867Z,99739.06
2022-10-07T16:56:47.322Z,99761.59
2022-10-07T17:01:52.771Z,99769.41
2022-10-07T17:06:59.104Z,99759.84
2022-10-07T17:12:03.945Z,99771.97
2022-10-07T17:17:08.798Z,99770.22
2022-10-07T17:22:14.335Z,99764.16
2022-10-07T17:27:19.440Z,99761.53
2022-10-07T17:32:22.902Z,99763.25
2022-10-07T17:37:28.626Z,99766.75
2022-10-07T17:42:32.106Z,99784.03
2022-10-07T17:47:36.161Z,99773.63
2022-10-07T17:52:41.772Z,99770.06
2022-10-07T17:57:47.573Z,99781.34
2022-10-07T18:02:51.902Z,99779.59
2022-10-07T18:07:59.123Z,99786.44
2022-10-07T18:13:20.154Z,99776.03
2022-10-07T18:18:24.251Z,99777.69
2022-10-07T18:23:30.408Z,99772.53
2022-10-07T18:28:35.318Z,99766.41
2022-10-07T18:33:39.385Z,99774.19
2022-10-07T18:38:46.497Z,99772.47
2022-10-07T18:43:50.348Z,99782.81
2022-10-07T18:48:55.068Z,99786.25
2022-10-07T18:53:59.783Z,99788.00
2022-10-07T18:59:03.597Z,99794.94
2022-10-07T19:04:08.923Z,99795.78
2022-10-07T19:09:17.139Z,99806.19
2022-10-07T19:14:20.583Z,99800.97
2022-10-07T19:19:26.534Z,99800.97
2022-10-07T19:24:45.056Z,99800.94
2022-10-07T19:29:49.669Z,99809.53
2022-10-07T19:34:53.993Z,99813.84
2022-10-07T19:39:59.422Z,99825.13
2022-10-07T19:45:03.127Z,99826.00
2022-10-07T19:50:08.538Z,99824.31
2022-10-07T19:55:14.147Z,99821.66
2022-10-07T20:00:18.454Z,99836.28
2022-10-07T20:05:22.536Z,99819.84
2022-10-07T20:10:29.066Z,99829.31
2022-10-07T20:15:33.310Z,99812.81
2022-10-07T20:20:37.578Z,99826.53
2022-10-07T20:25:43.017Z,99826.50
2022-10-07T20:30:47.116Z,99836.81
2022-10-07T20:35:53.576Z,99822.94
2022-10-07T20:41:15.807Z,99821.19
2022-10-07T20:46:20.137Z,99825.47
2022-10-07T20:51:24.732Z,99831.44
2022-10-07T20:56:30.239Z,99835.78
2022-10-07T21:01:34.337Z,99836.56
2022-10-07T21:06:38.401Z,99845.16
2022-10-07T21:11:43.891Z,99834.78
2022-10-07T21:16:50.202Z,99833.03
2022-10-07T21:21:54.391Z,99839.88
2022-10-07T21:26:59.907Z,99839.88
2022-10-07T21:32:04.499Z,99841.59
2022-10-07T21:37:08.540Z,99842.53
2022-10-07T21:42:13.337Z,99846.75
2022-10-07T21:47:17.297Z,99847.63
2022-10-07T21:52:20.690Z,99836.22
2022-10-07T21:57:26.210Z,99851.03
2022-10-07T22:02:29.978Z,99846.66
2022-10-07T22:07:51.898Z,99847.44
2022-10-07T22:12:56.581Z,99841.41
2022-10-07T22:18:00.561Z,99848.34
2022-10-07T22:23:03.854Z,99853.59
2022-10-07T22:28:09.337Z,99858.91
2022-10-07T22:33:15.278Z,99867.72
2022-10-07T22:38:20.340Z,99863.44
2022-10-07T22:43:24.767Z,99861.00
2022-10-07T22:48:29.328Z,99859.25
2022-10-07T22:53:32.686Z,99854.81
2022-10-07T22:58:39.858Z,99849.50
2022-10-07T23:03:44.340Z,99844.13
2022-10-07T23:08:49.969Z,99855.28
2022-10-07T23:13:55.614Z,99847.41
2022-10-07T23:19:00.726Z,99844.81
2022-10-07T23:24:07.629Z,99842.22
2022-10-07T23:29:14.415Z,99845.75
2022-10-07T23:34:18.723Z,99834.63
2022-10-07T23:39:23.099Z,99840.03
2022-10-07T23:44:27.795Z,99827.28
2022-10-07T23:49:31.906Z,99828.22
2022-10-07T23:54:35.254Z,99824.84
2022-10-07T23:59:40.662Z,99823.25
